sensor_id;sensor_type;location;lat;lon;timestamp;pressure;altitude;pressure_sealevel;temperature;humidity
36192;BME280;22233;42.708;23.360;2023-10-19T00:00:36;95510.50;;;11.56;68.46
36192;BME280;22233;42.708;23.360;2023-10-19T00:03:05;95503.00;;;11.62;68.19
36192;BME280;22233;42.708;23.360;2023-10-19T00:05:34;95489.34;;;11.45;67.92
36192;BME280;22233;42.708;23.360;2023-10-19T00:08:09;95506.38;;;11.59;67.94
36192;BME280;22233;42.708;23.360;2023-10-19T00:10:44;95493.41;;;11.65;67.88
36192;BME280;22233;42.708;23.360;2023-10-19T00:13:12;95486.81;;;11.48;68.50
36192;BME280;22233;42.708;23.360;2023-10-19T00:15:42;95482.94;;;11.32;67.87
36192;BME280;22233;42.708;23.360;2023-10-19T00:18:18;95488.19;;;11.19;68.76
36192;BME280;22233;42.708;23.360;2023-10-19T00:20:55;95484.88;;;11.40;67.55
36192;BME280;22233;42.708;23.360;2023-10-19T00:23:39;95480.56;;;11.39;68.82
36192;BME280;22233;42.708;23.360;2023-10-19T00:26:05;95479.91;;;11.42;67.90
36192;BME280;22233;42.708;23.360;2023-10-19T00:28:37;95480.38;;;11.35;67.80
36192;BME280;22233;42.708;23.360;2023-10-19T00:31:08;95464.38;;;11.25;67.30
36192;BME280;22233;42.708;23.360;2023-10-19T00:33:39;95475.56;;;11.32;67.51
36192;BME280;22233;42.708;23.360;2023-10-19T00:36:12;95482.81;;;11.37;68.26
36192;BME280;22233;42.708;23.360;2023-10-19T00:38:41;95468.06;;;11.38;67.66
36192;BME280;22233;42.708;23.360;2023-10-19T00:41:24;95471.75;;;11.33;67.89
36192;BME280;22233;42.708;23.360;2023-10-19T00:44:01;95474.47;;;11.33;68.07
36192;BME280;22233;42.708;23.360;2023-10-19T00:46:52;95467.75;;;11.39;67.58
36192;BME280;22233;42.708;23.360;2023-10-19T00:49:30;95464.88;;;11.36;67.33
36192;BME280;22233;42.708;23.360;2023-10-19T00:51:58;95462.72;;;11.15;68.43
36192;BME280;22233;42.708;23.360;2023-10-19T00:54:43;95455.19;;;11.12;68.05
36192;BME280;22233;42.708;23.360;2023-10-19T00:57:19;95467.81;;;11.08;68.18
36192;BME280;22233;42.708;23.360;2023-10-19T00:59:48;95466.34;;;11.02;68.86
36192;BME280;22233;42.708;23.360;2023-10-19T01:02:14;95475.00;;;11.04;69.14
36192;BME280;22233;42.708;23.360;2023-10-19T01:04:49;95475.63;;;11.01;67.70
36192;BME280;22233;42.708;23.360;2023-10-19T01:07:22;95453.81;;;10.84;68.94
36192;BME280;22233;42.708;23.360;2023-10-19T01:09:56;95474.59;;;10.88;69.32
36192;BME280;22233;42.708;23.360;2023-10-19T01:12:26;95467.59;;;10.87;68.28
36192;BME280;22233;42.708;23.360;2023-10-19T01:15:16;95473.22;;;10.68;69.45
36192;BME280;22233;42.708;23.360;2023-10-19T01:17:47;95460.09;;;10.62;68.70
36192;BME280;22233;42.708;23.360;2023-10-19T01:20:28;95477.69;;;10.64;70.28
36192;BME280;22233;42.708;23.360;2023-10-19T01:25:52;95475.31;;;10.63;69.01
36192;BME280;22233;42.708;23.360;2023-10-19T01:28:22;95450.56;;;10.42;69.53
36192;BME280;22233;42.708;23.360;2023-10-19T01:30:54;95464.44;;;10.63;69.51
36192;BME280;22233;42.708;23.360;2023-10-19T01:33:21;95462.03;;;10.61;70.07
36192;BME280;22233;42.708;23.360;2023-10-19T01:35:47;95456.41;;;10.57;69.78
36192;BME280;22233;42.708;23.360;2023-10-19T01:38:32;95461.50;;;10.50;69.44
36192;BME280;22233;42.708;23.360;2023-10-19T01:41:00;95458.16;;;10.53;70.15
36192;BME280;22233;42.708;23.360;2023-10-19T01:43:29;95460.63;;;10.41;69.81
36192;BME280;22233;42.708;23.360;2023-10-19T01:46:13;95458.84;;;10.36;69.62
36192;BME280;22233;42.708;23.360;2023-10-19T01:48:43;95475.38;;;10.26;70.17
36192;BME280;22233;42.708;23.360;2023-10-19T01:51:35;95474.25;;;10.27;70.38
36192;BME280;22233;42.708;23.360;2023-10-19T01:54:09;95460.53;;;10.10;70.90
36192;BME280;22233;42.708;23.360;2023-10-19T01:56:35;95476.66;;;10.06;70.76
36192;BME280;22233;42.708;23.360;2023-10-19T01:59:03;95468.94;;;10.22;69.76
36192;BME280;22233;42.708;23.360;2023-10-19T02:01:34;95476.91;;;10.18;69.94
36192;BME280;22233;42.708;23.360;2023-10-19T02:04:05;95466.59;;;9.84;70.51
36192;BME280;22233;42.708;23.360;2023-10-19T02:06:34;95464.81;;;10.02;70.63
36192;BME280;22233;42.708;23.360;2023-10-19T02:09:12;95460.59;;;9.73;71.36
36192;BME280;22233;42.708;23.360;2023-10-19T02:11:55;95469.47;;;9.51;71.80
36192;BME280;22233;42.708;23.360;2023-10-19T02:14:25;95461.03;;;9.53;71.89
36192;BME280;22233;42.708;23.360;2023-10-19T02:16:54;95466.72;;;9.29;71.97
36192;BME280;22233;42.708;23.360;2023-10-19T02:19:27;95452.81;;;9.58;70.78
36192;BME280;22233;42.708;23.360;2023-10-19T02:21:55;95477.47;;;9.70;70.92
36192;BME280;22233;42.708;23.360;2023-10-19T02:24:21;95448.03;;;9.64;70.21
36192;BME280;22233;42.708;23.360;2023-10-19T02:26:49;95470.41;;;9.83;70.49
36192;BME280;22233;42.708;23.360;2023-10-19T02:29:16;95477.00;;;9.91;70.22
36192;BME280;22233;42.708;23.360;2023-10-19T02:31:44;95475.84;;;9.83;70.69
36192;BME280;22233;42.708;23.360;2023-10-19T02:34:13;95476.56;;;9.75;70.80
36192;BME280;22233;42.708;23.360;2023-10-19T02:36:41;95461.28;;;9.79;70.18
36192;BME280;22233;42.708;23.360;2023-10-19T02:39:12;95457.06;;;9.73;69.53
36192;BME280;22233;42.708;23.360;2023-10-19T02:41:45;95472.09;;;9.56;69.85
36192;BME280;22233;42.708;23.360;2023-10-19T02:44:18;95468.03;;;9.68;70.44
36192;BME280;22233;42.708;23.360;2023-10-19T02:46:54;95465.44;;;9.63;70.18
36192;BME280;22233;42.708;23.360;2023-10-19T02:49:32;95468.22;;;8.66;73.24
36192;BME280;22233;42.708;23.360;2023-10-19T02:52:03;95465.72;;;8.97;72.85
36192;BME280;22233;42.708;23.360;2023-10-19T02:54:31;95467.91;;;9.23;71.75
36192;BME280;22233;42.708;23.360;2023-10-19T02:57:03;95476.34;;;9.07;72.40
36192;BME280;22233;42.708;23.360;2023-10-19T02:59:35;95460.72;;;9.04;71.82
36192;BME280;22233;42.708;23.360;2023-10-19T03:02:01;95468.44;;;9.11;71.80
36192;BME280;22233;42.708;23.360;2023-10-19T03:04:38;95462.78;;;9.21;71.50
36192;BME280;22233;42.708;23.360;2023-10-19T03:07:05;95461.69;;;9.22;71.23
36192;BME280;22233;42.708;23.360;2023-10-19T03:09:31;95460.06;;;9.35;71.30
36192;BME280;22233;42.708;23.360;2023-10-19T03:12:23;95441.66;;;8.95;72.00
36192;BME280;22233;42.708;23.360;2023-10-19T03:14:51;95463.72;;;9.16;71.94
36192;BME280;22233;42.708;23.360;2023-10-19T03:17:17;95456.44;;;9.39;70.93
36192;BME280;22233;42.708;23.360;2023-10-19T03:19:43;95467.28;;;9.39;70.70
36192;BME280;22233;42.708;23.360;2023-10-19T03:22:24;95463.38;;;9.46;70.78
36192;BME280;22233;42.708;23.360;2023-10-19T03:24:50;95459.47;;;9.38;70.54
36192;BME280;22233;42.708;23.360;2023-10-19T03:27:26;95464.78;;;9.43;70.32
36192;BME280;22233;42.708;23.360;2023-10-19T03:29:54;95465.50;;;9.35;70.70
36192;BME280;22233;42.708;23.360;2023-10-19T03:32:24;95449.88;;;9.18;71.32
36192;BME280;22233;42.708;23.360;2023-10-19T03:35:06;95464.00;;;9.29;69.57
36192;BME280;22233;42.708;23.360;2023-10-19T03:37:32;95451.47;;;9.05;70.53
36192;BME280;22233;42.708;23.360;2023-10-19T03:40:00;95459.91;;;8.90;71.28
36192;BME280;22233;42.708;23.360;2023-10-19T03:42:31;95452.38;;;8.87;71.25
36192;BME280;22233;42.708;23.360;2023-10-19T03:44:59;95451.66;;;8.81;71.64
36192;BME280;22233;42.708;23.360;2023-10-19T03:47:27;95449.06;;;8.90;70.65
36192;BME280;22233;42.708;23.360;2023-10-19T03:50:04;95456.28;;;8.94;71.47
36192;BME280;22233;42.708;23.360;2023-10-19T03:52:37;95437.22;;;8.86;71.21
36192;BME280;22233;42.708;23.360;2023-10-19T03:55:03;95444.22;;;8.59;72.37
36192;BME280;22233;42.708;23.360;2023-10-19T03:57:36;95444.16;;;8.78;70.92
36192;BME280;22233;42.708;23.360;2023-10-19T04:00:07;95444.31;;;8.54;71.34
36192;BME280;22233;42.708;23.360;2023-10-19T04:02:52;95433.00;;;8.52;71.84
36192;BME280;22233;42.708;23.360;2023-10-19T04:05:23;95427.38;;;8.62;70.69
36192;BME280;22233;42.708;23.360;2023-10-19T04:07:52;95436.03;;;8.31;72.12
36192;BME280;22233;42.708;23.360;2023-10-19T04:10:37;95436.00;;;8.17;72.27
36192;BME280;22233;42.708;23.360;2023-10-19T04:13:08;95450.94;;;8.15;73.09
36192;BME280;22233;42.708;23.360;2023-10-19T04:15:54;95438.88;;;8.07;73.09
36192;BME280;22233;42.708;23.360;2023-10-19T04:18:25;95455.91;;;8.08;73.42
36192;BME280;22233;42.708;23.360;2023-10-19T04:20:52;95460.88;;;8.00;73.95
36192;BME280;22233;42.708;23.360;2023-10-19T04:23:24;95444.38;;;8.02;72.90
36192;BME280;22233;42.708;23.360;2023-10-19T04:25:56;95446.19;;;8.07;73.38
36192;BME280;22233;42.708;23.360;2023-10-19T04:28:26;95437.66;;;7.99;74.16
36192;BME280;22233;42.708;23.360;2023-10-19T04:31:22;95452.16;;;7.90;74.39
36192;BME280;22233;42.708;23.360;2023-10-19T04:33:49;95449.09;;;7.77;74.89
36192;BME280;22233;42.708;23.360;2023-10-19T04:36:15;95433.44;;;7.93;74.29
36192;BME280;22233;42.708;23.360;2023-10-19T04:38:47;95403.63;;;7.60;73.98
36192;BME280;22233;42.708;23.360;2023-10-19T04:41:12;95437.13;;;7.46;75.38
36192;BME280;22233;42.708;23.360;2023-10-19T04:43:39;95433.16;;;7.76;75.24
36192;BME280;22233;42.708;23.360;2023-10-19T04:46:12;95428.44;;;8.00;74.56
36192;BME280;22233;42.708;23.360;2023-10-19T04:48:41;95428.34;;;8.06;74.61
36192;BME280;22233;42.708;23.360;2023-10-19T04:51:08;95420.25;;;8.06;73.34
36192;BME280;22233;42.708;23.360;2023-10-19T04:53:35;95415.88;;;8.24;72.97
36192;BME280;22233;42.708;23.360;2023-10-19T04:56:07;95421.41;;;8.32;71.96
36192;BME280;22233;42.708;23.360;2023-10-19T04:58:41;95417.69;;;8.28;72.39
36192;BME280;22233;42.708;23.360;2023-10-19T05:01:07;95415.59;;;8.25;72.37
36192;BME280;22233;42.708;23.360;2023-10-19T05:03:35;95414.91;;;8.33;72.39
36192;BME280;22233;42.708;23.360;2023-10-19T05:06:06;95423.69;;;8.25;72.69
36192;BME280;22233;42.708;23.360;2023-10-19T05:08:35;95431.31;;;8.37;72.38
36192;BME280;22233;42.708;23.360;2023-10-19T05:11:02;95420.59;;;8.32;72.55
36192;BME280;22233;42.708;23.360;2023-10-19T05:13:31;95424.44;;;8.45;72.25
36192;BME280;22233;42.708;23.360;2023-10-19T05:15:59;95437.63;;;8.51;72.17
36192;BME280;22233;42.708;23.360;2023-10-19T05:18:25;95426.09;;;8.59;71.83
36192;BME280;22233;42.708;23.360;2023-10-19T05:20:56;95431.81;;;8.86;70.27
36192;BME280;22233;42.708;23.360;2023-10-19T05:23:26;95434.81;;;8.70;76.08
36192;BME280;22233;42.708;23.360;2023-10-19T05:26:03;95444.75;;;10.57;87.07
36192;BME280;22233;42.708;23.360;2023-10-19T05:28:30;95427.31;;;11.82;78.25
36192;BME280;22233;42.708;23.360;2023-10-19T05:31:00;95444.16;;;12.83;72.82
36192;BME280;22233;42.708;23.360;2023-10-19T05:33:30;95439.84;;;13.50;67.24
36192;BME280;22233;42.708;23.360;2023-10-19T05:35:56;95448.38;;;13.70;63.51
36192;BME280;22233;42.708;23.360;2023-10-19T05:38:21;95444.59;;;13.83;56.81
36192;BME280;22233;42.708;23.360;2023-10-19T05:40:49;95451.28;;;13.44;55.44
36192;BME280;22233;42.708;23.360;2023-10-19T05:43:17;95459.56;;;13.17;55.12
36192;BME280;22233;42.708;23.360;2023-10-19T05:45:42;95451.94;;;12.46;57.19
36192;BME280;22233;42.708;23.360;2023-10-19T05:48:08;95448.31;;;12.16;57.58
36192;BME280;22233;42.708;23.360;2023-10-19T05:50:36;95456.56;;;11.50;59.64
36192;BME280;22233;42.708;23.360;2023-10-19T05:53:03;95447.03;;;11.04;61.13
36192;BME280;22233;42.708;23.360;2023-10-19T05:55:30;95454.56;;;10.67;63.07
36192;BME280;22233;42.708;23.360;2023-10-19T05:58:02;95464.94;;;10.19;64.49
36192;BME280;22233;42.708;23.360;2023-10-19T06:00:29;95470.34;;;10.19;64.38
36192;BME280;22233;42.708;23.360;2023-10-19T06:02:56;95440.94;;;8.90;68.98
36192;BME280;22233;42.708;23.360;2023-10-19T06:05:23;95459.06;;;9.45;68.54
36192;BME280;22233;42.708;23.360;2023-10-19T06:07:49;95453.63;;;9.45;68.64
36192;BME280;22233;42.708;23.360;2023-10-19T06:10:17;95461.53;;;9.55;68.79
36192;BME280;22233;42.708;23.360;2023-10-19T06:12:46;95453.69;;;9.53;69.10
36192;BME280;22233;42.708;23.360;2023-10-19T06:15:13;95462.00;;;9.71;69.07
36192;BME280;22233;42.708;23.360;2023-10-19T06:17:40;95455.38;;;9.63;69.71
36192;BME280;22233;42.708;23.360;2023-10-19T06:20:12;95462.47;;;9.50;70.13
36192;BME280;22233;42.708;23.360;2023-10-19T06:22:59;95450.13;;;9.44;70.44
36192;BME280;22233;42.708;23.360;2023-10-19T06:25:33;95447.31;;;9.35;71.24
36192;BME280;22233;42.708;23.360;2023-10-19T06:28:22;95453.13;;;9.79;70.73
36192;BME280;22233;42.708;23.360;2023-10-19T06:30:48;95433.97;;;9.25;71.98
36192;BME280;22233;42.708;23.360;2023-10-19T06:33:18;95432.97;;;9.35;72.04
36192;BME280;22233;42.708;23.360;2023-10-19T06:35:43;95433.81;;;9.08;72.65
36192;BME280;22233;42.708;23.360;2023-10-19T06:38:11;95446.84;;;9.19;73.10
36192;BME280;22233;42.708;23.360;2023-10-19T06:40:36;95454.31;;;9.50;71.75
36192;BME280;22233;42.708;23.360;2023-10-19T06:43:01;95461.41;;;9.74;71.16
36192;BME280;22233;42.708;23.360;2023-10-19T06:45:28;95461.72;;;9.72;71.83
36192;BME280;22233;42.708;23.360;2023-10-19T06:47:58;95457.97;;;9.82;71.49
36192;BME280;22233;42.708;23.360;2023-10-19T06:50:29;95466.59;;;9.84;71.44
36192;BME280;22233;42.708;23.360;2023-10-19T06:52:57;95463.56;;;9.86;71.89
36192;BME280;22233;42.708;23.360;2023-10-19T06:55:22;95454.38;;;9.73;72.01
36192;BME280;22233;42.708;23.360;2023-10-19T06:57:53;95449.53;;;9.70;71.60
36192;BME280;22233;42.708;23.360;2023-10-19T07:00:21;95450.31;;;9.84;72.59
36192;BME280;22233;42.708;23.360;2023-10-19T07:02:53;95435.28;;;10.00;71.59
36192;BME280;22233;42.708;23.360;2023-10-19T07:05:22;95439.38;;;10.34;71.34
36192;BME280;22233;42.708;23.360;2023-10-19T07:07:56;95434.88;;;10.61;71.32
36192;BME280;22233;42.708;23.360;2023-10-19T07:10:30;95426.81;;;10.87;69.26
36192;BME280;22233;42.708;23.360;2023-10-19T07:13:06;95433.06;;;10.88;69.54
36192;BME280;22233;42.708;23.360;2023-10-19T07:15:31;95440.31;;;11.01;68.99
36192;BME280;22233;42.708;23.360;2023-10-19T07:17:57;95438.25;;;11.15;69.50
36192;BME280;22233;42.708;23.360;2023-10-19T07:20:24;95443.72;;;11.24;67.69
36192;BME280;22233;42.708;23.360;2023-10-19T07:22:59;95435.06;;;11.22;68.18
36192;BME280;22233;42.708;23.360;2023-10-19T07:25:35;95441.34;;;11.31;68.86
36192;BME280;22233;42.708;23.360;2023-10-19T07:28:10;95437.31;;;11.29;68.52
36192;BME280;22233;42.708;23.360;2023-10-19T07:30:35;95439.63;;;11.62;68.08
36192;BME280;22233;42.708;23.360;2023-10-19T07:33:03;95436.59;;;11.63;67.94
36192;BME280;22233;42.708;23.360;2023-10-19T07:35:34;95425.56;;;11.94;67.50
36192;BME280;22233;42.708;23.360;2023-10-19T07:38:01;95442.34;;;11.79;67.53
36192;BME280;22233;42.708;23.360;2023-10-19T07:40:30;95451.84;;;11.90;67.00
36192;BME280;22233;42.708;23.360;2023-10-19T07:42:56;95456.19;;;11.91;67.33
36192;BME280;22233;42.708;23.360;2023-10-19T07:45:24;95439.03;;;11.91;66.56
36192;BME280;22233;42.708;23.360;2023-10-19T07:47:51;95450.06;;;11.94;66.87
36192;BME280;22233;42.708;23.360;2023-10-19T07:50:21;95446.06;;;11.83;67.60
36192;BME280;22233;42.708;23.360;2023-10-19T07:52:52;95453.41;;;11.83;66.97
36192;BME280;22233;42.708;23.360;2023-10-19T07:55:21;95448.81;;;11.92;68.35
36192;BME280;22233;42.708;23.360;2023-10-19T07:57:50;95441.91;;;12.12;67.56
36192;BME280;22233;42.708;23.360;2023-10-19T08:00:17;95442.69;;;11.86;67.45
36192;BME280;22233;42.708;23.360;2023-10-19T08:02:48;95433.53;;;11.47;69.37
36192;BME280;22233;42.708;23.360;2023-10-19T08:05:15;95450.72;;;12.00;67.82
36192;BME280;22233;42.708;23.360;2023-10-19T08:07:41;95441.09;;;11.85;69.42
36192;BME280;22233;42.708;23.360;2023-10-19T08:10:14;95454.06;;;11.88;69.50
36192;BME280;22233;42.708;23.360;2023-10-19T08:12:40;95448.63;;;12.32;67.50
36192;BME280;22233;42.708;23.360;2023-10-19T08:15:08;95432.56;;;12.48;67.88
36192;BME280;22233;42.708;23.360;2023-10-19T08:17:43;95434.53;;;12.77;66.63
36192;BME280;22233;42.708;23.360;2023-10-19T08:20:10;95427.00;;;12.83;66.04
36192;BME280;22233;42.708;23.360;2023-10-19T08:22:43;95426.22;;;13.12;65.94
36192;BME280;22233;42.708;23.360;2023-10-19T08:25:14;95429.78;;;13.42;65.21
36192;BME280;22233;42.708;23.360;2023-10-19T08:27:45;95434.28;;;13.38;64.95
36192;BME280;22233;42.708;23.360;2023-10-19T08:30:17;95435.84;;;13.48;64.17
36192;BME280;22233;42.708;23.360;2023-10-19T08:32:44;95436.53;;;13.66;63.88
36192;BME280;22233;42.708;23.360;2023-10-19T08:35:19;95433.41;;;13.76;63.71
36192;BME280;22233;42.708;23.360;2023-10-19T08:37:56;95438.31;;;14.04;63.18
36192;BME280;22233;42.708;23.360;2023-10-19T08:40:26;95432.28;;;14.31;62.89
36192;BME280;22233;42.708;23.360;2023-10-19T08:42:52;95421.88;;;14.46;62.92
36192;BME280;22233;42.708;23.360;2023-10-19T08:45:45;95426.81;;;14.65;62.60
36192;BME280;22233;42.708;23.360;2023-10-19T08:48:15;95409.00;;;14.46;61.87
36192;BME280;22233;42.708;23.360;2023-10-19T08:50:41;95424.38;;;14.84;62.01
36192;BME280;22233;42.708;23.360;2023-10-19T08:53:13;95418.31;;;14.78;61.15
36192;BME280;22233;42.708;23.360;2023-10-19T08:55:45;95430.97;;;14.71;62.01
36192;BME280;22233;42.708;23.360;2023-10-19T08:58:11;95431.13;;;15.11;60.81
36192;BME280;22233;42.708;23.360;2023-10-19T09:00:46;95399.41;;;14.86;60.58
36192;BME280;22233;42.708;23.360;2023-10-19T09:03:16;95426.94;;;14.56;62.52
36192;BME280;22233;42.708;23.360;2023-10-19T09:05:42;95419.22;;;14.83;61.33
36192;BME280;22233;42.708;23.360;2023-10-19T09:08:14;95420.06;;;15.08;60.67
36192;BME280;22233;42.708;23.360;2023-10-19T09:10:43;95404.31;;;15.17;60.66
36192;BME280;22233;42.708;23.360;2023-10-19T09:13:11;95393.25;;;15.50;59.37
36192;BME280;22233;42.708;23.360;2023-10-19T09:15:38;95389.59;;;15.46;58.83
36192;BME280;22233;42.708;23.360;2023-10-19T09:18:19;95389.38;;;15.51;59.47
36192;BME280;22233;42.708;23.360;2023-10-19T09:20:48;95407.03;;;15.54;59.69
36192;BME280;22233;42.708;23.360;2023-10-19T09:23:33;95395.72;;;15.80;58.58
36192;BME280;22233;42.708;23.360;2023-10-19T09:26:00;95383.31;;;15.58;58.77
36192;BME280;22233;42.708;23.360;2023-10-19T09:28:30;95390.88;;;15.89;58.29
36192;BME280;22233;42.708;23.360;2023-10-19T09:31:11;95372.88;;;15.88;58.04
36192;BME280;22233;42.708;23.360;2023-10-19T09:33:43;95383.16;;;16.07;57.48
36192;BME280;22233;42.708;23.360;2023-10-19T09:36:10;95360.56;;;16.10;56.33
36192;BME280;22233;42.708;23.360;2023-10-19T09:38:49;95356.34;;;16.29;56.63
36192;BME280;22233;42.708;23.360;2023-10-19T09:41:23;95367.66;;;16.27;56.71
36192;BME280;22233;42.708;23.360;2023-10-19T09:43:59;95362.25;;;16.75;55.49
36192;BME280;22233;42.708;23.360;2023-10-19T09:46:31;95328.16;;;16.76;54.93
36192;BME280;22233;42.708;23.360;2023-10-19T09:48:57;95361.19;;;16.80;54.88
36192;BME280;22233;42.708;23.360;2023-10-19T09:51:23;95348.81;;;17.02;55.40
36192;BME280;22233;42.708;23.360;2023-10-19T09:53:59;95345.94;;;17.14;54.96
36192;BME280;22233;42.708;23.360;2023-10-19T09:56:36;95349.59;;;17.53;54.13
36192;BME280;22233;42.708;23.360;2023-10-19T09:59:29;95339.09;;;17.40;53.85
36192;BME280;22233;42.708;23.360;2023-10-19T10:02:11;95334.25;;;17.52;53.34
36192;BME280;22233;42.708;23.360;2023-10-19T10:04:42;95341.28;;;17.85;53.03
36192;BME280;22233;42.708;23.360;2023-10-19T10:07:20;95332.13;;;18.01;52.64
36192;BME280;22233;42.708;23.360;2023-10-19T10:09:48;95325.75;;;18.16;52.32
36192;BME280;22233;42.708;23.360;2023-10-19T10:12:24;95315.63;;;18.20;51.44
36192;BME280;22233;42.708;23.360;2023-10-19T10:15:05;95323.22;;;18.27;51.92
36192;BME280;22233;42.708;23.360;2023-10-19T10:17:37;95307.41;;;18.43;50.66
36192;BME280;22233;42.708;23.360;2023-10-19T10:22:39;95316.03;;;18.42;50.87
36192;BME280;22233;42.708;23.360;2023-10-19T10:25:06;95318.34;;;18.63;50.15
36192;BME280;22233;42.708;23.360;2023-10-19T10:27:35;95312.72;;;18.79;49.78
36192;BME280;22233;42.708;23.360;2023-10-19T10:30:06;95298.50;;;18.50;49.36
36192;BME280;22233;42.708;23.360;2023-10-19T10:32:51;95299.28;;;18.50;49.70
36192;BME280;22233;42.708;23.360;2023-10-19T10:38:03;95285.66;;;18.34;50.94
36192;BME280;22233;42.708;23.360;2023-10-19T10:40:31;95266.22;;;18.70;49.48
36192;BME280;22233;42.708;23.360;2023-10-19T10:43:08;95265.97;;;18.55;50.27
36192;BME280;22233;42.708;23.360;2023-10-19T10:45:38;95268.16;;;18.92;49.42
36192;BME280;22233;42.708;23.360;2023-10-19T10:48:11;95252.91;;;18.99;48.86
36192;BME280;22233;42.708;23.360;2023-10-19T10:50:42;95233.59;;;18.45;49.70
36192;BME280;22233;42.708;23.360;2023-10-19T10:53:10;95243.59;;;18.80;50.21
36192;BME280;22233;42.708;23.360;2023-10-19T10:55:36;95244.00;;;19.09;48.84
36192;BME280;22233;42.708;23.360;2023-10-19T10:58:02;95243.13;;;19.31;48.92
36192;BME280;22233;42.708;23.360;2023-10-19T11:00:27;95242.09;;;19.43;48.84
36192;BME280;22233;42.708;23.360;2023-10-19T11:03:06;95241.72;;;19.75;48.03
36192;BME280;22233;42.708;23.360;2023-10-19T11:05:37;95222.44;;;20.12;47.06
36192;BME280;22233;42.708;23.360;2023-10-19T11:08:12;95223.72;;;20.26;47.23
36192;BME280;22233;42.708;23.360;2023-10-19T11:10:45;95206.59;;;20.47;46.70
36192;BME280;22233;42.708;23.360;2023-10-19T11:13:18;95208.31;;;20.59;46.13
36192;BME280;22233;42.708;23.360;2023-10-19T11:15:55;95209.91;;;20.63;46.21
36192;BME280;22233;42.708;23.360;2023-10-19T11:18:40;95204.94;;;20.87;45.69
36192;BME280;22233;42.708;23.360;2023-10-19T11:21:12;95202.28;;;21.08;44.90
36192;BME280;22233;42.708;23.360;2023-10-19T11:23:47;95201.16;;;21.17;44.91
36192;BME280;22233;42.708;23.360;2023-10-19T11:26:20;95195.22;;;21.11;45.00
36192;BME280;22233;42.708;23.360;2023-10-19T11:28:46;95186.75;;;20.79;46.34
36192;BME280;22233;42.708;23.360;2023-10-19T11:31:21;95174.31;;;21.10;45.65
36192;BME280;22233;42.708;23.360;2023-10-19T11:33:48;95176.69;;;21.11;44.84
36192;BME280;22233;42.708;23.360;2023-10-19T11:36:16;95183.00;;;21.15;45.21
36192;BME280;22233;42.708;23.360;2023-10-19T11:38:42;95173.25;;;21.36;45.07
36192;BME280;22233;42.708;23.360;2023-10-19T11:41:12;95176.00;;;21.36;45.33
36192;BME280;22233;42.708;23.360;2023-10-19T11:43:59;95157.47;;;21.40;44.54
36192;BME280;22233;42.708;23.360;2023-10-19T11:46:25;95159.97;;;21.70;44.32
36192;BME280;22233;42.708;23.360;2023-10-19T11:48:57;95159.56;;;21.61;43.95
36192;BME280;22233;42.708;23.360;2023-10-19T11:51:22;95151.69;;;21.74;43.89
36192;BME280;22233;42.708;23.360;2023-10-19T11:53:49;95149.34;;;21.98;43.34
36192;BME280;22233;42.708;23.360;2023-10-19T11:56:16;95158.03;;;22.03;43.17
36192;BME280;22233;42.708;23.360;2023-10-19T11:58:42;95139.03;;;21.66;43.13
36192;BME280;22233;42.708;23.360;2023-10-19T12:01:09;95152.91;;;22.02;43.26
36192;BME280;22233;42.708;23.360;2023-10-19T12:03:50;95158.88;;;22.32;42.32
36192;BME280;22233;42.708;23.360;2023-10-19T12:06:22;95161.28;;;22.34;42.79
36192;BME280;22233;42.708;23.360;2023-10-19T12:08:49;95154.94;;;22.48;42.77
36192;BME280;22233;42.708;23.360;2023-10-19T12:11:22;95149.78;;;22.46;42.48
36192;BME280;22233;42.708;23.360;2023-10-19T12:13:49;95153.34;;;22.68;42.00
36192;BME280;22233;42.708;23.360;2023-10-19T12:16:24;95151.34;;;22.69;42.07
36192;BME280;22233;42.708;23.360;2023-10-19T12:18:49;95137.44;;;23.08;41.37
36192;BME280;22233;42.708;23.360;2023-10-19T12:21:16;95126.75;;;23.10;41.36
36192;BME280;22233;42.708;23.360;2023-10-19T12:23:44;95114.50;;;23.04;41.28
36192;BME280;22233;42.708;23.360;2023-10-19T12:26:13;95131.94;;;22.87;41.30
36192;BME280;22233;42.708;23.360;2023-10-19T12:28:41;95132.75;;;22.73;41.87
36192;BME280;22233;42.708;23.360;2023-10-19T12:31:10;95122.44;;;22.88;41.15
36192;BME280;22233;42.708;23.360;2023-10-19T12:33:39;95128.25;;;23.26;41.15
36192;BME280;22233;42.708;23.360;2023-10-19T12:36:06;95114.09;;;22.99;40.63
36192;BME280;22233;42.708;23.360;2023-10-19T12:38:50;95119.25;;;23.04;41.37
36192;BME280;22233;42.708;23.360;2023-10-19T12:41:38;95118.84;;;23.09;41.06
36192;BME280;22233;42.708;23.360;2023-10-19T12:44:04;95111.53;;;23.51;40.13
36192;BME280;22233;42.708;23.360;2023-10-19T12:46:37;95106.28;;;23.67;40.12
36192;BME280;22233;42.708;23.360;2023-10-19T12:49:05;95107.06;;;23.68;39.94
36192;BME280;22233;42.708;23.360;2023-10-19T12:51:41;95107.63;;;24.08;39.14
36192;BME280;22233;42.708;23.360;2023-10-19T12:54:09;95102.16;;;24.01;38.85
36192;BME280;22233;42.708;23.360;2023-10-19T12:56:36;95088.09;;;24.22;38.64
36192;BME280;22233;42.708;23.360;2023-10-19T12:59:01;95092.28;;;24.41;38.56
36192;BME280;22233;42.708;23.360;2023-10-19T13:01:33;95092.59;;;24.54;38.46
36192;BME280;22233;42.708;23.360;2023-10-19T13:04:02;95092.03;;;24.70;38.05
36192;BME280;22233;42.708;23.360;2023-10-19T13:06:40;95089.44;;;24.90;37.38
36192;BME280;22233;42.708;23.360;2023-10-19T13:09:06;95085.91;;;25.20;37.37
36192;BME280;22233;42.708;23.360;2023-10-19T13:11:35;95081.91;;;25.25;37.14
36192;BME280;22233;42.708;23.360;2023-10-19T13:14:02;95081.44;;;25.34;37.06
36192;BME280;22233;42.708;23.360;2023-10-19T13:16:31;95075.22;;;25.22;36.74
36192;BME280;22233;42.708;23.360;2023-10-19T13:18:58;95077.16;;;25.25;36.62
36192;BME280;22233;42.708;23.360;2023-10-19T13:21:24;95074.78;;;25.24;36.78